Time;durP1;ratioP1;P1;durP2;ratioP2;P2;SDS_P1;SDS_P2;PMS_P1;PMS_P2;Temp;Humidity;BMP_temperature;BMP_pressure;BME280_temperature;BME280_humidity;BME280_pressure;Samples;Min_cycle;Max_cycle;Signal;HPM_P1;HPM_P2
2021/05/16 00:00:46;;;;;;;15.50;4.05;;;12.50;99.90;;;12.11;100.00;100142.47;4151954;28;20074;-70
2021/05/16 00:02:47;;;;;;;12.98;3.92;;;12.60;99.90;;;12.22;100.00;100130.59;4152711;28;20049;-70
2021/05/16 00:04:49;;;;;;;13.32;3.35;;;12.60;99.90;;;12.17;100.00;100136.44;4146986;28;20405;-70
2021/05/16 00:06:50;;;;;;;14.50;3.70;;;12.60;99.90;;;12.19;100.00;100125.69;4136964;28;20033;-70
2021/05/16 00:08:51;;;;;;;15.70;5.70;;;12.60;99.90;;;12.16;100.00;100126.88;4138010;28;20046;-70
2021/05/16 00:10:52;;;;;;;12.75;3.88;;;12.60;99.90;;;12.06;100.00;100128.13;4135769;28;20069;-70
2021/05/16 00:12:55;;;;;;;15.48;4.40;;;12.60;99.90;;;12.07;100.00;100117.38;4135351;28;20139;-70
2021/05/16 00:14:56;;;;;;;15.65;4.15;;;12.60;99.90;;;12.07;100.00;100130.59;4135512;28;20169;-70
2021/05/16 00:16:58;;;;;;;17.98;4.90;;;12.60;99.90;;;12.02;100.00;100127.69;4136506;28;20494;-70
2021/05/16 00:18:59;;;;;;;12.93;4.32;;;12.60;99.90;;;12.14;100.00;100122.75;4136501;28;20501;-70
2021/05/16 00:21:00;;;;;;;15.35;3.90;;;12.60;99.90;;;12.13;100.00;100121.94;4136696;28;20041;-70
2021/05/16 00:23:03;;;;;;;14.77;4.80;;;12.60;99.90;;;12.02;100.00;100105.69;4134892;28;20058;-70
2021/05/16 00:25:08;;;;;;;14.13;4.67;;;12.70;99.90;;;12.16;100.00;100108.34;4136490;28;20027;-70
2021/05/16 00:27:09;;;;;;;16.13;3.47;;;12.70;99.90;;;12.27;100.00;100106.28;4136220;28;20313;-70
2021/05/16 00:29:10;;;;;;;11.90;2.95;;;12.80;99.90;;;12.27;100.00;100100.97;4136305;28;20506;-70
2021/05/16 00:31:11;;;;;;;19.42;4.88;;;12.70;99.90;;;12.36;100.00;100105.19;4135305;28;20065;-70
2021/05/16 00:33:12;;;;;;;10.32;3.70;;;12.70;99.90;;;12.31;100.00;100094.31;4136188;28;20386;-70
2021/05/16 00:35:17;;;;;;;18.60;4.18;;;12.80;99.90;;;12.31;100.00;100083.72;4135053;28;20429;-70
2021/05/16 00:37:18;;;;;;;12.77;3.38;;;12.80;99.90;;;12.39;100.00;100102.16;4135224;28;20037;-70
2021/05/16 00:39:19;;;;;;;13.13;3.58;;;12.90;99.90;;;12.25;100.00;100100.31;4136428;28;20033;-70
2021/05/16 00:41:20;;;;;;;14.88;3.25;;;12.80;99.90;;;12.35;100.00;100101.72;4136331;28;20030;-70
2021/05/16 00:43:21;;;;;;;11.77;3.22;;;12.80;99.90;;;12.12;100.00;100107.09;4136124;28;20027;-70
2021/05/16 00:45:27;;;;;;;12.63;3.35;;;12.80;99.90;;;12.20;100.00;100088.50;4136310;28;20493;-70
2021/05/16 00:47:28;;;;;;;13.48;3.83;;;12.80;99.90;;;12.16;100.00;100102.25;4136146;28;20022;-70
2021/05/16 00:49:29;;;;;;;15.88;3.78;;;12.80;99.90;;;12.18;100.00;100082.53;4136054;28;20049;-70
2021/05/16 00:51:30;;;;;;;16.80;3.63;;;12.80;99.90;;;12.19;100.00;100078.91;4135043;28;20039;-70
2021/05/16 00:53:32;;;;;;;14.20;3.15;;;12.80;99.90;;;12.27;100.00;100093.06;4136149;28;20030;-70
2021/05/16 00:55:33;;;;;;;15.80;3.20;;;12.90;99.90;;;12.31;100.00;100086.38;4136226;28;20113;-70
2021/05/16 00:57:34;;;;;;;17.27;2.97;;;12.90;99.90;;;12.27;100.00;100088.59;4135849;28;20497;-70
2021/05/16 00:59:38;;;;;;;15.07;3.35;;;12.90;99.90;;;12.24;100.00;100075.72;4136005;28;20035;-70
2021/05/16 01:01:38;;;;;;;10.18;2.70;;;12.90;99.90;;;12.28;100.00;100087.56;4134750;28;20564;-70
2021/05/16 01:03:39;;;;;;;15.73;3.35;;;12.90;99.90;;;12.26;100.00;100078.19;4146083;28;20038;-70
2021/05/16 01:05:42;;;;;;;12.73;3.05;;;12.90;99.90;;;12.29;100.00;100072.53;4139016;28;20029;-70
2021/05/16 01:07:43;;;;;;;12.43;3.20;;;12.90;99.90;;;12.30;100.00;100071.53;4135971;28;20026;-70
2021/05/16 01:09:44;;;;;;;14.35;3.67;;;12.90;99.90;;;12.33;100.00;100068.53;4139130;28;20030;-70
2021/05/16 01:11:46;;;;;;;12.77;3.00;;;12.90;99.90;;;12.28;100.00;100069.06;4135821;28;20081;-70
2021/05/16 01:13:50;;;;;;;11.02;3.70;;;12.90;99.90;;;12.36;100.00;100065.50;4135574;28;20115;-70
2021/05/16 01:15:51;;;;;;;18.90;4.30;;;12.90;99.90;;;12.31;100.00;100071.34;4122188;28;20113;-70
2021/05/16 01:17:53;;;;;;;18.85;3.33;;;12.90;99.90;;;12.24;100.00;100056.41;4152028;28;20049;-70
2021/05/16 01:19:54;;;;;;;16.52;2.90;;;12.90;99.90;;;12.20;100.00;100056.75;4150822;28;20034;-70
2021/05/16 01:21:56;;;;;;;14.88;3.97;;;12.90;99.90;;;12.21;100.00;100065.53;4151802;28;20048;-70
2021/05/16 01:23:57;;;;;;;18.23;3.40;;;12.90;99.90;;;12.25;100.00;100053.56;4152092;28;20433;-70
2021/05/16 01:25:59;;;;;;;16.13;4.70;;;12.90;99.90;;;12.23;100.00;100054.75;4150844;28;20049;-70
2021/05/16 01:28:01;;;;;;;12.52;3.33;;;12.90;99.90;;;12.31;100.00;100057.28;4150583;28;20057;-70
2021/05/16 01:30:06;;;;;;;18.52;4.10;;;12.90;99.90;;;12.34;100.00;100049.81;4150659;28;20030;-70
2021/05/16 01:32:11;;;;;;;15.95;3.05;;;12.90;99.90;;;12.30;100.00;100055.66;4152063;28;20034;-70
2021/05/16 01:34:13;;;;;;;15.15;4.53;;;12.90;99.90;;;12.42;100.00;100055.03;4151784;28;20500;-70
2021/05/16 01:36:18;;;;;;;14.75;3.65;;;12.90;99.90;;;12.36;100.00;100054.94;4155215;28;20034;-70
2021/05/16 01:38:19;;;;;;;17.25;3.17;;;12.90;99.90;;;12.20;100.00;100054.13;4155090;28;20034;-70
2021/05/16 01:40:22;;;;;;;19.45;3.85;;;12.90;99.90;;;12.27;100.00;100056.03;4154024;28;20037;-70
2021/05/16 01:42:25;;;;;;;12.65;3.40;;;12.90;99.90;;;12.25;100.00;100058.84;4154963;28;20049;-70
2021/05/16 01:44:26;;;;;;;16.75;4.32;;;12.90;99.90;;;12.16;100.00;100054.66;4155134;28;20433;-70
2021/05/16 01:46:27;;;;;;;17.30;3.50;;;12.80;99.90;;;12.38;100.00;100063.50;4153757;28;20125;-70
2021/05/16 01:48:28;;;;;;;14.82;3.45;;;12.80;99.90;;;12.42;100.00;100044.44;4155335;28;20030;-70
2021/05/16 01:50:32;;;;;;;14.18;3.45;;;12.90;99.90;;;12.37;100.00;100040.69;4154969;28;20072;-70
2021/05/16 01:52:35;;;;;;;12.35;3.25;;;12.90;99.90;;;12.33;100.00;100042.91;4155127;28;20403;-70
2021/05/16 01:54:37;;;;;;;19.38;4.05;;;12.90;99.90;;;12.29;100.00;100041.63;4155119;28;20034;-70
2021/05/16 01:56:38;;;;;;;13.95;3.58;;;12.90;99.90;;;12.29;100.00;100048.72;4153816;28;20038;-70
2021/05/16 01:58:40;;;;;;;17.23;3.30;;;12.90;99.90;;;12.31;100.00;100049.34;4154513;28;20033;-70
2021/05/16 02:00:44;;;;;;;12.00;3.33;;;12.90;99.90;;;12.25;100.00;100036.88;4153621;28;20026;-70
2021/05/16 02:02:46;;;;;;;12.18;2.80;;;12.90;99.90;;;12.25;100.00;100036.88;4154468;28;20052;-70
2021/05/16 02:04:48;;;;;;;19.33;4.07;;;12.90;99.90;;;12.19;100.00;100031.31;4148996;28;20030;-70
2021/05/16 02:06:48;;;;;;;16.27;3.78;;;12.80;99.90;;;12.28;100.00;100036.50;4137308;28;20031;-70
2021/05/16 02:08:50;;;;;;;16.83;4.05;;;12.80;99.90;;;12.11;100.00;100034.06;4140930;28;20469;-70
2021/05/16 02:10:51;;;;;;;17.20;3.30;;;12.80;99.90;;;12.24;100.00;100029.94;4137554;28;20050;-70
2021/05/16 02:12:52;;;;;;;14.13;3.67;;;12.80;99.90;;;12.12;100.00;100027.78;4138293;28;20042;-70
2021/05/16 02:14:53;;;;;;;16.58;2.60;;;12.80;99.90;;;12.24;100.00;100035.25;4138416;28;20070;-70
2021/05/16 02:16:55;;;;;;;12.55;3.30;;;12.80;99.90;;;12.12;100.00;100033.06;4138335;28;20033;-70
2021/05/16 02:18:56;;;;;;;9.40;2.33;;;12.80;99.90;;;12.26;100.00;100025.28;4137112;28;20045;-70
2021/05/16 02:20:57;;;;;;;12.05;3.28;;;12.80;99.90;;;12.24;100.00;100024.66;4137293;28;20030;-70
2021/05/16 02:22:58;;;;;;;13.32;3.92;;;12.80;99.90;;;12.17;100.00;100028.03;4120933;28;20101;-70
2021/05/16 02:24:59;;;;;;;10.75;3.17;;;12.80;99.90;;;12.15;100.00;100019.47;4137036;28;20055;-70
2021/05/16 02:27:00;;;;;;;24.23;4.30;;;12.80;99.90;;;12.23;100.00;100020.38;4137113;28;20034;-70
2021/05/16 02:29:02;;;;;;;12.00;2.90;;;12.80;99.90;;;12.18;100.00;100018.28;4138109;28;20023;-70
2021/05/16 02:31:13;;;;;;;20.02;4.88;;;12.80;99.90;;;12.27;100.00;100019.00;4137040;28;20037;-70
2021/05/16 02:33:15;;;;;;;14.18;2.95;;;12.80;99.90;;;12.29;100.00;100019.63;4136920;28;20042;-70
2021/05/16 02:35:16;;;;;;;13.27;3.22;;;12.80;99.90;;;12.21;100.00;100002.06;4136954;28;20096;-70
2021/05/16 02:37:17;;;;;;;14.30;3.85;;;12.80;99.90;;;12.40;100.00;100022.63;4136982;28;20030;-70
2021/05/16 02:39:18;;;;;;;15.30;4.30;;;12.80;99.90;;;12.30;100.00;100018.63;4136892;28;20069;-70
2021/05/16 02:41:19;;;;;;;15.60;3.85;;;12.80;99.90;;;12.36;100.00;100013.44;4137999;28;20441;-70
2021/05/16 02:43:20;;;;;;;14.60;3.75;;;12.80;99.90;;;12.33;100.00;100018.28;4136795;28;20023;-70
2021/05/16 02:45:21;;;;;;;13.32;3.35;;;12.80;99.90;;;12.32;100.00;100014.81;4137953;28;20081;-70
2021/05/16 02:47:23;;;;;;;18.55;3.00;;;12.90;99.90;;;12.29;100.00;100014.34;4137916;28;20113;-71
2021/05/16 02:49:24;;;;;;;13.98;3.20;;;12.90;99.90;;;12.35;100.00;100011.78;4136691;28;20525;-70
2021/05/16 02:51:24;;;;;;;12.32;3.92;;;12.80;99.90;;;12.38;100.00;100011.41;4138040;28;20069;-70
2021/05/16 02:53:25;;;;;;;16.25;3.75;;;12.90;99.90;;;12.33;100.00;100010.34;4136799;28;20034;-70
2021/05/16 02:55:26;;;;;;;16.98;3.45;;;12.90;99.90;;;12.42;100.00;100018.00;4137935;28;20026;-70
2021/05/16 02:57:27;;;;;;;12.60;3.30;;;12.90;99.90;;;12.24;100.00;100014.09;4137662;28;20034;-70
2021/05/16 02:59:29;;;;;;;13.10;3.33;;;12.90;99.90;;;12.42;100.00;99996.00;4137684;28;20089;-70
2021/05/16 03:01:30;;;;;;;12.40;3.30;;;12.90;99.90;;;12.26;100.00;100009.44;4137719;28;20047;-70
2021/05/16 03:03:30;;;;;;;14.10;3.17;;;12.90;99.90;;;12.22;100.00;100001.03;4145350;28;20022;-70
2021/05/16 03:05:32;;;;;;;6.93;2.15;;;12.90;99.90;;;12.24;100.00;100004.34;4140573;28;20026;-70
2021/05/16 03:07:33;;;;;;;11.85;2.83;;;12.90;99.90;;;12.19;100.00;99998.75;4152529;28;20049;-70
2021/05/16 03:09:35;;;;;;;15.55;3.60;;;12.90;99.90;;;12.31;100.00;99992.00;4140412;28;20026;-70
2021/05/16 03:11:36;;;;;;;10.25;3.35;;;12.80;99.90;;;12.36;100.00;99988.81;4137474;28;20110;-70
2021/05/16 03:13:37;;;;;;;10.88;2.67;;;12.90;99.90;;;12.25;100.00;99991.91;4137305;28;20038;-70
2021/05/16 03:15:38;;;;;;;10.32;2.53;;;12.90;99.90;;;12.26;100.00;99998.84;4120051;28;20023;-70
2021/05/16 03:17:39;;;;;;;9.38;2.33;;;12.80;99.90;;;12.04;100.00;100004.06;4137516;28;20070;-70
2021/05/16 03:19:40;;;;;;;11.27;2.55;;;12.70;99.90;;;11.80;100.00;99985.03;4136261;28;20042;-70
2021/05/16 03:21:41;;;;;;;7.28;2.47;;;12.70;99.90;;;11.95;100.00;100010.44;4136324;28;20093;-70
2021/05/16 03:23:42;;;;;;;7.63;1.75;;;12.70;99.90;;;11.68;100.00;99996.00;4137311;28;20027;-70
2021/05/16 03:25:43;;;;;;;6.60;1.85;;;12.60;99.90;;;11.38;100.00;99985.59;4137529;28;20085;-70
2021/05/16 03:27:44;;;;;;;7.25;1.30;;;12.40;99.90;;;11.37;100.00;99989.25;4136001;28;20110;-70
2021/05/16 03:29:45;;;;;;;4.90;1.63;;;12.20;99.90;;;11.47;100.00;99987.16;4137502;28;20117;-70
2021/05/16 03:31:46;;;;;;;5.82;1.77;;;12.30;99.90;;;11.68;100.00;99997.03;4137240;28;20034;-70
2021/05/16 03:33:47;;;;;;;6.65;2.53;;;12.20;99.90;;;11.52;100.00;99992.72;4137248;28;20030;-70
2021/05/16 03:35:49;;;;;;;5.65;2.60;;;12.30;99.90;;;11.50;100.00;100000.00;4137294;28;20037;-70
2021/05/16 03:37:50;;;;;;;4.68;1.80;;;12.30;99.90;;;11.61;100.00;100003.03;4119865;28;20031;-70
2021/05/16 03:39:51;;;;;;;10.38;3.42;;;12.20;99.90;;;11.45;100.00;100003.19;4137045;28;20100;-70
2021/05/16 03:41:55;;;;;;;8.80;3.03;;;12.20;99.90;;;11.35;100.00;100009.72;4137270;28;20469;-70
2021/05/16 03:43:56;;;;;;;5.97;2.38;;;12.20;99.90;;;11.38;100.00;99991.69;4137131;28;20018;-70
2021/05/16 03:45:57;;;;;;;9.52;2.47;;;12.20;99.90;;;11.41;100.00;100019.59;4136982;28;20030;-70
2021/05/16 03:47:58;;;;;;;12.60;3.00;;;12.10;99.90;;;11.61;100.00;100010.13;4137100;28;20525;-70
2021/05/16 03:49:59;;;;;;;9.38;2.65;;;12.20;99.90;;;11.24;100.00;100010.97;4137108;28;20169;-70
2021/05/16 03:52:00;;;;;;;9.60;2.58;;;12.10;99.90;;;11.19;100.00;100013.31;4135754;28;20378;-70
2021/05/16 03:54:00;;;;;;;11.52;2.88;;;12.00;99.90;;;11.03;100.00;100022.19;4136935;28;20045;-70
2021/05/16 03:56:01;;;;;;;14.27;3.90;;;11.90;99.90;;;11.10;100.00;100020.50;4136819;28;20022;-70
2021/05/16 03:58:03;;;;;;;7.60;3.30;;;11.80;99.90;;;11.16;100.00;100012.84;4136101;28;20030;-70
2021/05/16 04:00:07;;;;;;;9.18;2.95;;;11.80;99.90;;;11.07;100.00;100004.19;4136846;28;20034;-70
2021/05/16 04:02:08;;;;;;;7.55;2.20;;;11.80;99.90;;;11.10;100.00;100009.94;4135391;28;20506;-70
2021/05/16 04:04:09;;;;;;;9.95;3.10;;;11.80;99.90;;;11.06;100.00;100013.91;4149853;28;20058;-70
2021/05/16 04:06:09;;;;;;;7.35;2.30;;;11.70;99.90;;;11.04;100.00;100008.00;4136866;28;20402;-70
2021/05/16 04:08:11;;;;;;;11.10;2.20;;;11.70;99.90;;;10.92;100.00;100001.50;4136746;28;20019;-70
2021/05/16 04:10:12;;;;;;;14.30;3.10;;;11.60;99.90;;;10.81;100.00;99987.91;4149047;28;20033;-70
2021/05/16 04:12:13;;;;;;;7.18;2.42;;;11.50;99.90;;;11.14;100.00;100005.09;4135131;28;20042;-70
2021/05/16 04:14:15;;;;;;;16.05;4.78;;;11.60;99.90;;;11.02;100.00;100007.34;4168047;28;20036;-70
2021/05/16 04:16:16;;;;;;;14.40;3.70;;;11.60;99.90;;;10.66;100.00;100008.09;4152854;28;20026;-70
2021/05/16 04:18:17;;;;;;;13.15;2.85;;;11.50;99.90;;;10.66;100.00;100013.38;4152879;28;20109;-70
2021/05/16 04:20:18;;;;;;;17.67;3.35;;;11.50;99.90;;;10.87;100.00;100018.84;4151483;28;20022;-70
2021/05/16 04:22:19;;;;;;;15.95;4.15;;;11.50;99.90;;;10.90;100.00;99994.75;4152897;28;20026;-70
2021/05/16 04:24:20;;;;;;;9.52;2.80;;;11.50;99.90;;;10.93;100.00;100005.75;4151663;28;20034;-70
2021/05/16 04:26:21;;;;;;;14.07;3.33;;;11.50;99.90;;;10.80;100.00;100002.91;4152778;28;20037;-70
2021/05/16 04:28:22;;;;;;;13.05;3.35;;;11.50;99.90;;;10.76;100.00;99998.97;4152390;28;20029;-70
2021/05/16 04:30:23;;;;;;;10.35;3.63;;;11.50;99.90;;;10.77;100.00;100002.41;4151569;28;20022;-70
2021/05/16 04:32:24;;;;;;;19.92;4.95;;;11.40;99.90;;;10.57;100.00;100009.97;4152700;28;20034;-70
2021/05/16 04:34:25;;;;;;;16.60;4.78;;;11.40;99.90;;;10.61;100.00;100008.59;4151450;28;20034;-70
2021/05/16 04:36:26;;;;;;;13.75;3.80;;;11.40;99.90;;;10.65;100.00;100009.91;4152723;28;20037;-70
2021/05/16 04:38:27;;;;;;;15.73;4.20;;;11.40;99.90;;;10.83;100.00;100004.34;4152668;28;20058;-70
2021/05/16 04:40:28;;;;;;;17.92;4.88;;;11.40;99.90;;;10.65;100.00;99994.09;4152506;28;20061;-70
2021/05/16 04:42:30;;;;;;;13.77;3.83;;;11.40;99.90;;;10.78;100.00;99998.78;4152324;28;20018;-70
2021/05/16 04:44:31;;;;;;;12.32;3.55;;;11.40;99.90;;;10.84;100.00;100000.72;4151320;28;20437;-70
2021/05/16 04:46:32;;;;;;;15.55;4.20;;;11.40;99.90;;;10.84;100.00;99993.63;4152435;28;20068;-70
2021/05/16 04:48:33;;;;;;;15.45;3.67;;;11.40;99.90;;;10.93;100.00;100005.75;4151356;28;20069;-70
2021/05/16 04:50:34;;;;;;;13.93;2.78;;;11.40;99.90;;;11.02;100.00;100002.06;4152443;28;20112;-70
2021/05/16 04:52:35;;;;;;;21.10;3.80;;;11.50;99.90;;;11.05;100.00;99991.16;4151089;28;20037;-70
2021/05/16 04:54:36;;;;;;;15.32;3.33;;;11.50;99.90;;;11.06;100.00;99998.06;4167582;28;20025;-70
2021/05/16 04:56:37;;;;;;;13.52;4.13;;;11.60;99.90;;;11.08;100.00;100001.34;4151310;28;20456;-70
2021/05/16 04:58:38;;;;;;;16.08;3.70;;;11.60;99.90;;;11.06;100.00;100006.00;4152108;28;20045;-70
2021/05/16 05:00:39;;;;;;;15.15;3.60;;;11.60;99.90;;;11.13;100.00;100010.56;4152163;28;20045;-70
2021/05/16 05:02:42;;;;;;;14.00;5.10;;;11.60;99.90;;;10.90;100.00;99992.13;4151847;28;20413;-70
2021/05/16 05:04:44;;;;;;;11.48;4.05;;;11.60;99.90;;;10.97;100.00;99993.84;4145454;28;20026;-70
2021/05/16 05:06:44;;;;;;;13.23;3.60;;;11.60;99.90;;;10.99;100.00;100007.69;4134769;28;20453;-70
2021/05/16 05:08:45;;;;;;;14.70;3.03;;;11.60;99.90;;;11.04;100.00;100005.38;4135705;28;20073;-70
2021/05/16 05:10:46;;;;;;;11.00;3.10;;;11.60;99.90;;;11.18;100.00;100013.47;4135259;28;20125;-70
2021/05/16 05:12:47;;;;;;;10.13;2.58;;;11.70;99.90;;;11.20;100.00;100017.59;4135886;28;20030;-70
2021/05/16 05:14:48;;;;;;;12.77;2.92;;;11.70;99.90;;;11.24;100.00;100008.31;4135862;28;20030;-70
2021/05/16 05:16:49;;;;;;;10.65;2.65;;;11.70;99.90;;;11.22;100.00;100001.59;4135834;28;20386;-70
2021/05/16 05:18:50;;;;;;;10.93;2.83;;;11.80;99.90;;;11.32;100.00;99992.41;4135601;28;20556;-70
2021/05/16 05:20:51;;;;;;;11.90;3.35;;;11.90;99.90;;;11.29;100.00;100002.53;4136040;28;20038;-70
2021/05/16 05:22:52;;;;;;;19.13;3.70;;;11.90;99.90;;;11.37;100.00;100013.00;4135679;28;20033;-70
2021/05/16 05:24:53;;;;;;;14.32;3.75;;;11.90;99.90;;;11.35;100.00;100015.00;4135884;28;20031;-70
2021/05/16 05:26:54;;;;;;;11.73;2.97;;;11.90;99.90;;;11.48;100.00;100017.84;4135770;28;20022;-70
2021/05/16 05:28:55;;;;;;;9.55;2.95;;;12.00;99.90;;;11.47;100.00;100017.03;4135598;28;20505;-70
2021/05/16 05:30:56;;;;;;;10.75;3.03;;;12.00;99.90;;;11.44;100.00;100019.22;4135779;28;20084;-70
2021/05/16 05:32:56;;;;;;;10.13;2.47;;;12.00;99.90;;;11.46;100.00;100006.66;4135853;28;20034;-70
2021/05/16 05:34:57;;;;;;;12.35;3.70;;;12.00;99.90;;;11.50;100.00;100014.03;4135479;28;20026;-70
2021/05/16 05:36:58;;;;;;;13.95;3.47;;;12.10;99.90;;;11.42;100.00;100015.91;4135643;28;20410;-70
2021/05/16 05:38:59;;;;;;;11.68;3.17;;;12.10;99.90;;;11.46;100.00;100010.13;4134359;28;20077;-70
2021/05/16 05:41:00;;;;;;;11.15;2.78;;;12.20;99.90;;;11.53;100.00;100011.03;4135583;28;20027;-70
2021/05/16 05:43:01;;;;;;;9.82;3.22;;;12.20;99.90;;;11.62;100.00;100011.75;4135162;28;20437;-70
2021/05/16 05:45:04;;;;;;;12.57;4.25;;;12.20;99.90;;;11.67;100.00;100014.69;4134453;28;20058;-70
2021/05/16 05:47:06;;;;;;;11.43;3.67;;;12.30;99.90;;;11.72;100.00;99999.16;4134277;28;20027;-70
2021/05/16 05:49:07;;;;;;;8.80;2.95;;;12.40;99.90;;;11.72;100.00;100004.44;4134309;28;20285;-70
2021/05/16 05:51:08;;;;;;;10.60;2.85;;;12.40;99.90;;;11.72;100.00;100006.25;4134160;28;20061;-70
2021/05/16 05:53:09;;;;;;;8.63;2.97;;;12.40;99.90;;;11.80;100.00;100008.81;4134473;28;20031;-70
2021/05/16 05:55:10;;;;;;;11.88;3.53;;;12.40;99.90;;;11.95;100.00;100015.72;4135551;28;20481;-70
2021/05/16 05:57:11;;;;;;;8.85;2.78;;;12.50;99.90;;;11.85;100.00;100015.19;4134161;28;20436;-70
2021/05/16 05:59:13;;;;;;;11.73;3.55;;;12.50;99.90;;;11.71;100.00;100012.56;4135363;28;20084;-70
2021/05/16 06:01:15;;;;;;;9.85;3.10;;;12.40;99.90;;;11.66;100.00;100000.66;4134281;28;20146;-70
2021/05/16 06:03:17;;;;;;;11.70;3.20;;;12.40;99.90;;;11.70;100.00;100011.72;4142391;28;20037;-70
2021/05/16 06:05:18;;;;;;;14.10;3.38;;;12.40;99.90;;;11.68;100.00;100003.13;4140450;28;20042;-70
2021/05/16 06:07:19;;;;;;;13.00;3.65;;;12.40;99.90;;;11.83;100.00;100019.00;4135472;28;20038;-70
2021/05/16 06:09:19;;;;;;;15.40;3.53;;;12.40;99.90;;;11.82;100.00;100028.78;4140960;28;20022;-70
2021/05/16 06:11:20;;;;;;;12.15;3.95;;;12.40;99.90;;;11.85;100.00;100022.31;4151770;28;20057;-70
2021/05/16 06:13:22;;;;;;;12.15;3.35;;;12.40;99.90;;;11.86;100.00;100022.09;4151509;28;20030;-70
2021/05/16 06:15:24;;;;;;;12.30;4.05;;;12.40;99.90;;;11.73;100.00;100018.47;4150497;28;20038;-70
2021/05/16 06:17:28;;;;;;;9.70;3.03;;;12.40;99.90;;;11.87;100.00;100025.56;4150712;28;20456;-70
2021/05/16 06:19:29;;;;;;;;;;;12.40;99.90;;;11.89;100.00;100010.34;4151994;28;20113;-70
2021/05/16 06:21:30;;;;;;;10.85;2.42;;;12.40;99.90;;;11.88;100.00;100024.59;4153262;28;19960;-70
2021/05/16 06:23:43;;;;;;;13.98;2.60;;;12.50;99.90;;;11.88;100.00;100020.13;4153452;28;20025;-70
2021/05/16 06:25:47;;;;;;;12.50;3.20;;;12.50;99.90;;;11.97;100.00;100028.78;4153544;28;20026;-70
2021/05/16 06:27:48;;;;;;;12.23;3.85;;;12.50;99.90;;;12.03;100.00;100034.16;4154279;28;20034;-70
2021/05/16 06:29:49;;;;;;;13.15;2.88;;;12.60;99.90;;;12.15;100.00;100043.28;4153236;28;20034;-70
2021/05/16 06:31:50;;;;;;;16.90;3.58;;;12.60;99.90;;;12.18;100.00;100048.16;4154556;28;20563;-70
2021/05/16 06:33:51;;;;;;;13.43;3.40;;;12.80;99.90;;;12.31;100.00;100031.66;4154521;28;20029;-70
2021/05/16 06:35:52;;;;;;;11.57;2.25;;;13.00;99.90;;;12.56;100.00;100032.19;4153190;28;20022;-70
2021/05/16 06:37:53;;;;;;;15.55;3.00;;;13.20;99.90;;;12.57;100.00;100036.47;4154405;28;20034;-70
2021/05/16 06:39:54;;;;;;;15.15;2.95;;;13.30;99.90;;;12.59;100.00;100037.94;4154178;28;20062;-70
2021/05/16 06:41:55;;;;;;;16.05;3.42;;;13.40;99.90;;;12.73;100.00;100030.94;4154430;28;20400;-70
2021/05/16 06:43:56;;;;;;;23.25;4.70;;;13.50;99.90;;;12.62;100.00;100039.38;4154245;28;20405;-70
2021/05/16 06:45:56;;;;;;;18.40;3.30;;;13.40;99.90;;;12.57;100.00;100047.06;4154215;28;20065;-70
2021/05/16 06:47:57;;;;;;;8.90;3.30;;;13.40;99.90;;;12.43;100.00;100039.94;4154083;28;20022;-70
2021/05/16 06:49:58;;;;;;;16.27;3.33;;;13.30;99.90;;;12.56;100.00;100029.53;4154279;28;20169;-70
2021/05/16 06:51:59;;;;;;;16.27;4.05;;;13.30;99.90;;;12.46;100.00;100021.88;4154077;28;20408;-70
2021/05/16 06:54:00;;;;;;;12.13;2.60;;;13.30;99.90;;;12.39;100.00;100038.69;4154129;28;20034;-70
2021/05/16 06:56:01;;;;;;;15.57;3.40;;;13.30;99.90;;;12.35;100.00;100032.94;4154041;28;20030;-70
2021/05/16 06:58:04;;;;;;;18.15;3.47;;;13.30;99.90;;;12.61;100.00;100038.53;4153921;28;20026;-70
2021/05/16 07:00:08;;;;;;;17.27;4.07;;;13.30;99.90;;;12.77;100.00;100030.41;4154066;28;20025;-70
2021/05/16 07:02:09;;;;;;;;;;;13.40;99.90;;;12.71;100.00;100038.25;4154163;28;20050;-70
2021/05/16 07:04:11;;;;;;;15.27;2.90;;;13.50;99.90;;;12.85;99.28;100040.03;4152933;28;20291;-70
2021/05/16 07:06:12;;;;;;;11.90;2.72;;;13.60;99.90;;;13.01;99.31;100028.38;4136644;28;20053;-70
2021/05/16 07:08:12;;;;;;;17.83;4.53;;;13.70;99.90;;;13.15;97.51;100031.00;4137705;28;20042;-70
2021/05/16 07:10:13;;;;;;;19.60;3.53;;;13.90;99.90;;;13.14;100.00;100033.84;4140397;28;20029;-70
2021/05/16 07:12:14;;;;;;;16.08;3.95;;;14.10;99.90;;;12.84;99.18;100032.28;4137621;28;20109;-70
2021/05/16 07:14:15;;;;;;;16.73;3.80;;;14.10;99.90;;;13.00;96.43;100032.84;4137641;28;20022;-70
2021/05/16 07:16:16;;;;;;;20.80;3.53;;;14.20;99.90;;;13.29;96.84;100030.09;4137473;28;20057;-70
2021/05/16 07:18:17;;;;;;;15.55;4.80;;;14.40;99.90;;;13.18;97.11;100030.63;4137509;28;20034;-70
2021/05/16 07:20:19;;;;;;;18.35;3.67;;;14.40;99.90;;;12.84;96.47;100033.13;4136015;28;20022;-70
2021/05/16 07:22:20;;;;;;;16.48;3.95;;;14.30;99.90;;;12.91;95.23;100047.22;4137676;28;20022;-70
2021/05/16 07:24:21;;;;;;;17.90;3.90;;;14.20;99.90;;;13.22;95.66;100042.47;4137466;28;20050;-70
2021/05/16 07:26:22;;;;;;;18.48;4.00;;;14.40;99.90;;;13.36;92.04;100053.19;4137410;28;20027;-70
2021/05/16 07:28:24;;;;;;;12.48;3.85;;;14.40;99.90;;;13.63;92.12;100049.75;4137117;28;20504;-70
2021/05/16 07:30:25;;;;;;;20.75;3.97;;;14.60;99.90;;;13.51;94.00;100061.88;4137354;28;20031;-70
2021/05/16 07:32:26;;;;;;;15.65;3.70;;;14.70;99.90;;;13.25;92.64;100060.66;4136227;28;20042;-70
2021/05/16 07:34:27;;;;;;;8.98;3.67;;;14.70;99.90;;;13.13;90.46;100050.75;4137110;28;20031;-70
2021/05/16 07:36:28;;;;;;;19.92;3.47;;;14.70;99.90;;;13.29;92.94;100067.19;4119689;28;20035;-70
2021/05/16 07:38:28;;;;;;;15.43;3.10;;;14.50;99.90;;;12.85;89.74;100061.22;4137078;28;20050;-70
2021/05/16 07:40:30;;;;;;;15.98;3.58;;;14.30;99.90;;;12.77;89.16;100056.03;4137043;28;20042;-70
2021/05/16 07:42:31;;;;;;;17.23;3.75;;;14.20;99.90;;;12.70;90.82;100053.31;4135580;28;20026;-70
2021/05/16 07:44:31;;;;;;;20.02;4.03;;;14.10;99.90;;;12.88;90.69;100055.53;4137034;28;20026;-70
2021/05/16 07:46:32;;;;;;;17.25;4.00;;;14.10;99.90;;;12.81;92.21;100062.59;4137046;28;20035;-70
2021/05/16 07:48:33;;;;;;;17.95;3.53;;;14.00;99.90;;;13.02;92.20;100044.06;4137136;28;20401;-70
2021/05/16 07:50:35;;;;;;;16.65;4.20;;;14.10;99.90;;;13.41;90.58;100056.09;4135573;28;20121;-70
2021/05/16 07:52:36;;;;;;;20.10;4.00;;;14.30;99.90;;;13.23;90.71;100060.00;4136982;28;20034;-70
2021/05/16 07:54:38;;;;;;;16.27;3.78;;;14.30;99.90;;;13.02;94.34;100075.84;4136805;28;20034;-70
2021/05/16 07:56:39;;;;;;;17.73;3.13;;;14.20;99.90;;;13.18;93.02;100062.41;4135579;28;20516;-70
2021/05/16 07:58:40;;;;;;;17.38;3.90;;;14.20;99.90;;;12.91;90.36;100063.09;4151486;28;20022;-70
2021/05/16 08:00:40;;;;;;;17.25;4.75;;;14.10;99.90;;;13.18;89.79;100075.63;4136652;28;20409;-70
2021/05/16 08:02:43;;;;;;;17.50;3.80;;;14.20;99.90;;;13.29;92.29;100055.75;4138704;28;20039;-70
2021/05/16 08:04:44;;;;;;;15.35;3.65;;;14.30;99.90;;;13.46;89.34;100075.69;4146096;28;20088;-70
2021/05/16 08:06:45;;;;;;;12.45;3.25;;;14.40;99.90;;;13.64;88.20;100064.63;4136656;28;20034;-70
2021/05/16 08:08:46;;;;;;;16.50;3.53;;;14.60;99.90;;;13.41;87.07;100072.78;4138513;28;20404;-70
2021/05/16 08:10:47;;;;;;;16.42;4.63;;;14.60;99.90;;;13.53;88.24;100081.06;4137240;28;20026;-70
2021/05/16 08:12:49;;;;;;;13.32;2.85;;;14.60;99.90;;;13.41;87.42;100072.00;4136475;28;20037;-70
2021/05/16 08:14:50;;;;;;;13.13;2.80;;;14.60;99.90;;;13.41;88.79;100083.38;4136668;28;20031;-70
2021/05/16 08:16:51;;;;;;;16.02;4.22;;;14.60;99.90;;;13.29;86.92;100071.66;4136504;28;20033;-70